Hamburg °C
Tucson °C
Bonn °C
Lübeck °C
  26.04.2018 Ferienhaus Ostsee
Anmeldung



more...
[source: ADDS]
METAR
EDDH 260450Z 24004KT 7000 -SHRA SCT008 SCT014CB BKN032 07/06 Q1009 RESHRA TEMPO BKN008 =
TAF
TAF EDDH 252300Z 2600/2706 24007KT 9999 SCT030 TEMPO 2603/2618 26015G25KT SHRA BKN013CB PROB30 TEMPO 2603/2616 27020G35KT 2500 TSRA BKN009 BKN013CB BECMG 2607/2609 26012KT BECMG 2616/2619 23006KT =
Start Support Fernwartungsmodul

Fernwartung

Übersicht Downloads suchen
Kategorie: Fernwartungsmodul
Dateien:
Fernwartung v.1.0

Download

einfach unten auf Download klicken und ausführen wir teilen Ihnen dann eine ID NR. mit, diese dann eintragen und los gehts


Erstellt am
Dateigröße
Downloads
09.12.2010
1.22 MB
1704
Wer ist online
Wir haben 13 Gäste online
Meine IP
Domain Check
Domain Name :
Check All Domain Types
.com .net .info .org .biz .co.uk .name .cc .us .tv .eu .edu .mobi .nl .ca